Time;durP1;ratioP1;P1;durP2;ratioP2;P2;SDS_P1;SDS_P2;PMS_P1;PMS_P2;Temp;Humidity;BMP_temperature;BMP_pressure;BME280_temperature;BME280_humidity;BME280_pressure;Samples;Min_cycle;Max_cycle;Signal;HPM_P1;HPM_P2
2022/03/26 00:01:13;;;;;;;;;;;23.80;33.30;;;;;;1546809;76;1934;-64
2022/03/26 00:03:15;;;;;;;;;;;23.80;33.30;;;;;;1546866;76;859;-65
2022/03/26 00:05:17;;;;;;;;;;;23.80;33.20;;;;;;1546796;76;750;-66
2022/03/26 00:07:19;;;;;;;;;;;23.80;33.30;;;;;;1553931;76;742;-64
2022/03/26 00:09:21;;;;;;;;;;;23.80;33.40;;;;;;1543508;75;1096;-64
2022/03/26 00:11:23;;;;;;;;;;;23.70;33.40;;;;;;1547432;76;589;-65
2022/03/26 00:13:24;;;;;;;;;;;23.70;33.50;;;;;;1547460;76;710;-64
2022/03/26 00:15:26;;;;;;;;;;;23.70;33.40;;;;;;1547661;76;689;-66
2022/03/26 00:17:28;;;;;;;;;;;23.70;33.40;;;;;;1554086;76;699;-64
2022/03/26 00:19:30;;;;;;;;;;;23.70;33.40;;;;;;1553597;75;1137;-65
2022/03/26 00:21:32;;;;;;;;;;;23.70;33.50;;;;;;1544497;76;1958;-66
2022/03/26 00:23:34;;;;;;;;;;;23.70;33.40;;;;;;1543579;76;759;-64
2022/03/26 00:25:36;;;;;;;;;;;23.70;33.50;;;;;;1544836;76;689;-66
2022/03/26 00:27:38;;;;;;;;;;;23.70;33.50;;;;;;1554618;76;751;-64
2022/03/26 00:29:40;;;;;;;;;;;23.80;33.50;;;;;;1549912;75;1119;-64
2022/03/26 00:31:42;;;;;;;;;;;23.70;33.50;;;;;;1540148;75;746;-63
2022/03/26 00:33:44;;;;;;;;;;;23.70;33.60;;;;;;1543797;75;731;-64
2022/03/26 00:35:46;;;;;;;;;;;23.70;33.70;;;;;;1549313;76;837;-66
2022/03/26 00:37:48;;;;;;;;;;;23.70;33.60;;;;;;1552307;76;926;-65
2022/03/26 00:39:50;;;;;;;;;;;23.80;33.60;;;;;;1547055;75;1120;-65
2022/03/26 00:41:52;;;;;;;;;;;23.70;33.60;;;;;;1546905;76;1960;-65
2022/03/26 00:43:54;;;;;;;;;;;23.60;33.60;;;;;;1546266;76;698;-65
2022/03/26 00:45:56;;;;;;;;;;;23.70;33.70;;;;;;1544614;76;714;-65
2022/03/26 00:47:59;;;;;;;;;;;23.70;33.60;;;;;;1558299;75;688;-64
2022/03/26 00:50:01;;;;;;;;;;;23.70;33.70;;;;;;1550152;75;1124;-64
2022/03/26 00:52:03;;;;;;;;;;;23.70;33.70;;;;;;1546773;76;690;-64
2022/03/26 00:54:05;;;;;;;;;;;23.70;33.80;;;;;;1545720;76;694;-64
2022/03/26 00:56:07;;;;;;;;;;;23.70;33.70;;;;;;1550717;76;896;-64
2022/03/26 00:58:09;;;;;;;;;;;23.70;33.70;;;;;;1547254;75;1089;-64
2022/03/26 01:00:12;;;;;;;;;;;23.80;33.70;;;;;;1550095;76;646;-65
2022/03/26 01:02:13;;;;;;;;;;;23.70;33.70;;;;;;1552007;76;1907;-64
2022/03/26 01:04:15;;;;;;;;;;;23.60;33.60;;;;;;1548926;76;717;-64
2022/03/26 01:06:18;;;;;;;;;;;23.70;33.90;;;;;;1550432;75;675;-64
2022/03/26 01:08:20;;;;;;;;;;;23.70;33.90;;;;;;1546239;75;1176;-64
2022/03/26 01:10:22;;;;;;;;;;;23.70;33.90;;;;;;1554074;75;692;-64
2022/03/26 01:12:24;;;;;;;;;;;23.70;33.90;;;;;;1552414;76;706;-64
2022/03/26 01:14:26;;;;;;;;;;;23.70;33.90;;;;;;1547489;76;664;-64
2022/03/26 01:16:28;;;;;;;;;;;23.60;33.70;;;;;;1554666;76;772;-64
2022/03/26 01:18:29;;;;;;;;;;;23.60;33.80;;;;;;1551378;75;1139;-66
2022/03/26 01:20:31;;;;;;;;;;;23.70;33.90;;;;;;1554515;76;1942;-62
2022/03/26 01:22:33;;;;;;;;;;;23.70;33.90;;;;;;1553224;76;705;-64
2022/03/26 01:24:35;;;;;;;;;;;23.70;33.90;;;;;;1542802;75;715;-64
2022/03/26 01:26:37;;;;;;;;;;;23.60;33.80;;;;;;1544616;76;720;-65
2022/03/26 01:28:39;;;;;;;;;;;23.70;33.90;;;;;;1552976;75;1131;-64
2022/03/26 01:30:41;;;;;;;;;;;23.60;33.80;;;;;;1544413;75;737;-64
2022/03/26 01:32:48;;;;;;;;;;;23.60;33.90;;;;;;1545056;76;936;-65
2022/03/26 01:34:46;;;;;;;;;;;23.60;33.90;;;;;;1545000;76;1704;-64
2022/03/26 01:36:48;;;;;;;;;;;23.60;33.90;;;;;;1545569;75;728;-65
2022/03/26 01:38:50;;;;;;;;;;;23.60;33.90;;;;;;1549473;75;1117;-64
2022/03/26 01:40:52;;;;;;;;;;;23.60;33.90;;;;;;1551062;75;1929;-65
2022/03/26 01:42:54;;;;;;;;;;;23.60;33.90;;;;;;1546632;75;734;-64
2022/03/26 01:44:56;;;;;;;;;;;23.70;34.10;;;;;;1550502;75;746;-63
2022/03/26 01:46:59;;;;;;;;;;;23.60;34.00;;;;;;1557574;75;687;-65
2022/03/26 01:49:01;;;;;;;;;;;23.60;34.00;;;;;;1551944;75;1109;-65
2022/03/26 01:51:14;;;;;;;;;;;23.60;33.90;;;;;;1545072;75;710;-64
2022/03/26 01:53:07;;;;;;;;;;;23.60;34.00;;;;;;1551194;76;1780;-66
2022/03/26 01:55:09;;;;;;;;;;;23.60;34.00;;;;;;1545931;75;700;-64
2022/03/26 01:57:11;;;;;;;;;;;23.60;34.00;;;;;;1547628;76;710;-65
2022/03/26 01:59:13;;;;;;;;;;;23.60;33.90;;;;;;1546120;76;1139;-64
2022/03/26 02:01:15;;;;;;;;;;;23.60;34.00;;;;;;1544921;75;1928;-67
2022/03/26 02:03:17;;;;;;;;;;;23.60;33.90;;;;;;1542840;76;701;-65
2022/03/26 02:05:20;;;;;;;;;;;23.60;34.00;;;;;;1544518;76;687;-65
2022/03/26 02:07:22;;;;;;;;;;;23.60;34.00;;;;;;1548322;76;731;-65
2022/03/26 02:09:24;;;;;;;;;;;23.60;34.00;;;;;;1545473;75;1143;-64
2022/03/26 02:11:26;;;;;;;;;;;23.60;34.00;;;;;;1548967;76;703;-67
2022/03/26 02:13:30;;;;;;;;;;;23.60;34.00;;;;;;1554488;76;732;-67
2022/03/26 02:15:32;;;;;;;;;;;23.60;34.00;;;;;;1542347;76;1905;-65
2022/03/26 02:17:34;;;;;;;;;;;23.60;34.00;;;;;;1548422;76;691;-65
2022/03/26 02:19:36;;;;;;;;;;;23.60;34.10;;;;;;1574863;71;227987;-66
2022/03/26 02:21:38;;;;;;;;;;;23.60;34.10;;;;;;1596995;73;1928;-66
2022/03/26 02:23:40;;;;;;;;;;;23.70;34.20;;;;;;1600982;73;789;-65
2022/03/26 02:25:42;;;;;;;;;;;23.70;34.20;;;;;;1603442;73;737;-66
2022/03/26 02:27:44;;;;;;;;;;;23.70;34.20;;;;;;1589316;73;750;-66
2022/03/26 02:29:46;;;;;;;;;;;23.60;34.00;;;;;;1609288;72;1181;-65
2022/03/26 02:31:47;;;;;;;;;;;23.60;34.00;;;;;;1595659;73;719;-66
2022/03/26 02:33:49;;;;;;;;;;;23.60;34.10;;;;;;1595463;74;688;-66
2022/03/26 02:35:51;;;;;;;;;;;23.70;34.20;;;;;;1603566;72;647;-66
2022/03/26 02:37:53;;;;;;;;;;;23.70;34.10;;;;;;1619533;72;696;-65
2022/03/26 02:39:55;;;;;;;;;;;23.70;34.10;;;;;;1600334;72;1112;-66
2022/03/26 02:41:57;;;;;;;;;;;23.70;34.10;;;;;;1602135;72;1940;-66
2022/03/26 02:43:59;;;;;;;;;;;23.90;34.20;;;;;;1611703;72;755;-67
2022/03/26 02:46:01;;;;;;;;;;;23.80;34.10;;;;;;1597213;72;714;-65
2022/03/26 02:48:03;;;;;;;;;;;23.80;34.10;;;;;;1602809;72;721;-65
2022/03/26 02:50:06;;;;;;;;;;;23.70;34.20;;;;;;1607794;72;1106;-66
2022/03/26 02:52:08;;;;;;;;;;;23.80;34.10;;;;;;1618265;72;750;-64
2022/03/26 02:54:19;;;;;;;;;;;23.70;34.10;;;;;;1610383;72;730;-64
2022/03/26 02:56:21;;;;;;;;;;;23.70;34.10;;;;;;1605219;73;645;-64
2022/03/26 02:58:23;;;;;;;;;;;23.70;34.10;;;;;;1536989;75;718;-64
2022/03/26 03:00:24;;;;;;;;;;;23.70;34.20;;;;;;1577865;74;1114;-64
2022/03/26 03:02:26;;;;;;;;;;;23.70;34.10;;;;;;1558204;75;1934;-63
2022/03/26 03:04:29;;;;;;;;;;;23.70;34.20;;;;;;1540406;75;615;-65
2022/03/26 03:06:31;;;;;;;;;;;23.70;34.10;;;;;;1601656;74;737;-64
2022/03/26 03:08:33;;;;;;;;;;;23.70;34.20;;;;;;1560622;74;1170;-67
2022/03/26 03:10:35;;;;;;;;;;;23.70;34.20;;;;;;1560961;74;686;-66
2022/03/26 03:12:37;;;;;;;;;;;23.70;34.20;;;;;;1580610;73;607;-67
2022/03/26 03:14:39;;;;;;;;;;;23.70;34.20;;;;;;1599168;74;755;-67
2022/03/26 03:16:41;;;;;;;;;;;23.70;34.20;;;;;;1543241;75;726;-67
2022/03/26 03:18:43;;;;;;;;;;;23.70;34.20;;;;;;1609960;72;1132;-67
2022/03/26 03:20:45;;;;;;;;;;;23.70;34.20;;;;;;1613288;71;736;-67
2022/03/26 03:22:47;;;;;;;;;;;23.70;34.30;;;;;;1600893;73;1909;-65
2022/03/26 03:24:49;;;;;;;;;;;23.70;34.30;;;;;;1592899;72;732;-66
2022/03/26 03:26:50;;;;;;;;;;;23.80;34.20;;;;;;1609035;72;711;-66
2022/03/26 03:28:52;;;;;;;;;;;23.80;34.20;;;;;;1603257;72;1148;-66
2022/03/26 03:30:54;;;;;;;;;;;23.90;34.20;;;;;;1604167;72;701;-66
2022/03/26 03:32:56;;;;;;;;;;;23.90;34.20;;;;;;1585896;73;664;-67
2022/03/26 03:34:58;;;;;;;;;;;24.00;34.00;;;;;;1610697;72;739;-66
2022/03/26 03:37:00;;;;;;;;;;;24.00;34.20;;;;;;1607134;72;683;-67
2022/03/26 03:39:02;;;;;;;;;;;23.90;34.40;;;;;;1598112;73;1166;-66
2022/03/26 03:41:04;;;;;;;;;;;23.80;35.00;;;;;;1605629;73;705;-66
2022/03/26 03:43:06;;;;;;;;;;;23.70;35.20;;;;;;1611734;73;1918;-66
2022/03/26 03:45:09;;;;;;;;;;;23.70;35.50;;;;;;1613202;72;737;-65
2022/03/26 03:47:10;;;;;;;;;;;23.70;35.50;;;;;;1609498;72;697;-66
2022/03/26 03:49:12;;;;;;;;;;;23.60;35.60;;;;;;1598164;72;1126;-66
2022/03/26 03:51:14;;;;;;;;;;;23.60;35.70;;;;;;1558259;75;702;-67
2022/03/26 03:53:17;;;;;;;;;;;23.60;35.70;;;;;;1566185;74;664;-67
2022/03/26 03:55:19;;;;;;;;;;;23.60;35.80;;;;;;1566740;74;596;-66
2022/03/26 03:57:21;;;;;;;;;;;23.60;35.90;;;;;;1581211;74;725;-66
2022/03/26 03:59:23;;;;;;;;;;;23.60;35.90;;;;;;1569162;74;1245;-66
2022/03/26 04:01:25;;;;;;;;;;;23.60;36.00;;;;;;1579939;74;644;-67
2022/03/26 04:03:26;;;;;;;;;;;23.60;36.10;;;;;;1575735;74;1942;-66
2022/03/26 04:05:29;;;;;;;;;;;23.50;36.00;;;;;;1586849;74;827;-67
2022/03/26 04:07:30;;;;;;;;;;;23.60;36.10;;;;;;1579858;74;638;-66
2022/03/26 04:09:32;;;;;;;;;;;23.60;36.00;;;;;;1564580;74;1135;-66
2022/03/26 04:11:34;;;;;;;;;;;23.60;36.00;;;;;;1567438;74;726;-66
2022/03/26 04:13:36;;;;;;;;;;;23.50;36.00;;;;;;1568266;74;731;-68
2022/03/26 04:15:38;;;;;;;;;;;23.60;36.00;;;;;;1564277;74;747;-66
2022/03/26 04:17:40;;;;;;;;;;;23.60;36.00;;;;;;1607802;72;723;-66
2022/03/26 04:19:42;;;;;;;;;;;23.60;36.00;;;;;;1597958;72;1119;-65
2022/03/26 04:21:43;;;;;;;;;;;23.60;36.10;;;;;;1602452;72;1927;-65
2022/03/26 04:23:45;;;;;;;;;;;23.60;36.20;;;;;;1612094;72;708;-65
2022/03/26 04:25:47;;;;;;;;;;;23.70;36.20;;;;;;1602390;72;708;-67
2022/03/26 04:27:49;;;;;;;;;;;23.60;36.00;;;;;;1608268;72;784;-68
2022/03/26 04:29:51;;;;;;;;;;;23.70;36.20;;;;;;1602374;72;1153;-68
2022/03/26 04:31:53;;;;;;;;;;;23.70;36.20;;;;;;1602126;72;720;-66
2022/03/26 04:33:55;;;;;;;;;;;23.70;36.10;;;;;;1619555;73;683;-68
2022/03/26 04:35:57;;;;;;;;;;;23.70;36.10;;;;;;1609539;73;645;-66
2022/03/26 04:37:59;;;;;;;;;;;23.70;36.00;;;;;;1603624;72;700;-67
2022/03/26 04:40:01;;;;;;;;;;;23.70;36.00;;;;;;1555011;74;1183;-66
2022/03/26 04:42:03;;;;;;;;;;;23.70;36.00;;;;;;1552816;75;1942;-67
2022/03/26 04:44:05;;;;;;;;;;;23.70;36.00;;;;;;1580844;74;717;-66
2022/03/26 04:46:08;;;;;;;;;;;23.70;35.90;;;;;;1579661;74;720;-66
2022/03/26 04:48:10;;;;;;;;;;;23.60;35.80;;;;;;1568081;74;698;-66
2022/03/26 04:50:12;;;;;;;;;;;23.70;36.00;;;;;;1579529;74;1157;-66
2022/03/26 04:52:13;;;;;;;;;;;23.80;35.90;;;;;;1543591;75;711;-64
2022/03/26 04:54:15;;;;;;;;;;;23.70;35.90;;;;;;1578333;74;733;-64
2022/03/26 04:56:17;;;;;;;;;;;23.70;35.90;;;;;;1537805;75;702;-67
2022/03/26 04:58:19;;;;;;;;;;;23.70;36.00;;;;;;1582057;74;724;-67
2022/03/26 05:00:22;;;;;;;;;;;23.70;36.00;;;;;;1551354;74;1096;-68
2022/03/26 05:02:24;;;;;;;;;;;23.70;36.00;;;;;;1539200;75;1912;-66
2022/03/26 05:04:26;;;;;;;;;;;23.70;36.00;;;;;;1561122;74;878;-66
2022/03/26 05:06:28;;;;;;;;;;;23.70;36.00;;;;;;1574665;74;732;-66
2022/03/26 05:08:30;;;;;;;;;;;23.70;36.00;;;;;;1565439;74;1141;-66
2022/03/26 05:10:32;;;;;;;;;;;23.70;36.10;;;;;;1566681;74;725;-66
2022/03/26 05:12:34;;;;;;;;;;;23.80;36.30;;;;;;1573350;74;710;-66
2022/03/26 05:14:36;;;;;;;;;;;23.80;36.20;;;;;;1578833;74;722;-67
2022/03/26 05:16:38;;;;;;;;;;;23.70;36.20;;;;;;1582461;74;717;-66
2022/03/26 05:18:40;;;;;;;;;;;23.80;36.30;;;;;;1604704;72;1081;-66
2022/03/26 05:20:41;;;;;;;;;;;23.80;36.20;;;;;;1595606;72;747;-66
2022/03/26 05:22:45;;;;;;;;;;;23.80;36.10;;;;;;1604362;73;1943;-66
2022/03/26 05:24:47;;;;;;;;;;;23.80;36.10;;;;;;1593507;73;693;-66
2022/03/26 05:26:49;;;;;;;;;;;23.70;36.10;;;;;;1610777;72;778;-68
2022/03/26 05:28:51;;;;;;;;;;;23.80;36.10;;;;;;1609402;72;1170;-66
2022/03/26 05:30:53;;;;;;;;;;;23.70;36.10;;;;;;1600938;72;725;-66
2022/03/26 05:32:55;;;;;;;;;;;23.80;36.10;;;;;;1606458;72;791;-67
2022/03/26 05:34:57;;;;;;;;;;;23.80;36.10;;;;;;1611876;72;650;-68
2022/03/26 05:36:59;;;;;;;;;;;23.70;36.00;;;;;;1603447;72;730;-66
2022/03/26 05:39:01;;;;;;;;;;;23.80;36.10;;;;;;1610516;72;1155;-66
2022/03/26 05:41:04;;;;;;;;;;;23.70;36.00;;;;;;1601734;72;771;-66
2022/03/26 05:43:06;;;;;;;;;;;23.70;36.00;;;;;;1595320;74;2020;-65
2022/03/26 05:45:08;;;;;;;;;;;23.70;36.00;;;;;;1597083;74;852;-66
2022/03/26 05:47:10;;;;;;;;;;;23.70;36.00;;;;;;1597485;74;744;-67
2022/03/26 05:49:12;;;;;;;;;;;23.70;36.00;;;;;;1597741;73;1221;-67
2022/03/26 05:51:14;;;;;;;;;;;23.70;36.10;;;;;;1598562;73;758;-66
2022/03/26 05:53:16;;;;;;;;;;;23.70;36.10;;;;;;1595230;72;848;-65
2022/03/26 05:55:18;;;;;;;;;;;23.70;36.10;;;;;;1597693;73;710;-65
2022/03/26 05:57:19;;;;;;;;;;;23.70;36.10;;;;;;1597796;74;731;-65
2022/03/26 05:59:23;;;;;;;;;;;23.70;36.10;;;;;;1596554;73;1123;-66
2022/03/26 06:01:25;;;;;;;;;;;23.80;36.10;;;;;;1597765;72;741;-66
2022/03/26 06:03:27;;;;;;;;;;;23.70;36.10;;;;;;1592070;73;1923;-66
2022/03/26 06:05:30;;;;;;;;;;;23.80;36.10;;;;;;1596691;74;697;-65
2022/03/26 06:07:32;;;;;;;;;;;23.80;36.20;;;;;;1596999;73;691;-65
2022/03/26 06:09:35;;;;;;;;;;;23.80;36.10;;;;;;1596114;73;1149;-66
2022/03/26 06:11:37;;;;;;;;;;;23.80;36.20;;;;;;1598212;72;763;-65
2022/03/26 06:13:39;;;;;;;;;;;23.80;36.40;;;;;;1597447;73;751;-66
2022/03/26 06:15:42;;;;;;;;;;;23.80;36.30;;;;;;1598413;73;705;-68
2022/03/26 06:17:45;;;;;;;;;;;23.80;36.20;;;;;;1598511;73;723;-67
2022/03/26 06:19:47;;;;;;;;;;;23.90;36.30;;;;;;1599801;73;1127;-67
2022/03/26 06:21:49;;;;;;;;;;;23.80;36.20;;;;;;1597594;73;727;-67
2022/03/26 06:23:52;;;;;;;;;;;23.80;36.20;;;;;;1593315;73;1905;-67
2022/03/26 06:25:54;;;;;;;;;;;23.80;36.20;;;;;;1597276;73;717;-68
2022/03/26 06:27:56;;;;;;;;;;;23.80;36.30;;;;;;1600015;73;713;-66
2022/03/26 06:29:58;;;;;;;;;;;23.80;36.30;;;;;;1597989;73;1102;-66
2022/03/26 06:32:01;;;;;;;;;;;23.80;36.20;;;;;;1600141;73;725;-67
2022/03/26 06:34:03;;;;;;;;;;;23.80;36.20;;;;;;1597132;72;717;-68
2022/03/26 06:36:05;;;;;;;;;;;23.80;36.20;;;;;;1598336;73;724;-66
2022/03/26 06:38:07;;;;;;;;;;;23.80;36.20;;;;;;1598255;73;801;-67
2022/03/26 06:40:09;;;;;;;;;;;23.80;36.20;;;;;;1597739;73;1157;-66
2022/03/26 06:42:11;;;;;;;;;;;23.80;36.20;;;;;;1596229;73;724;-66
2022/03/26 06:44:13;;;;;;;;;;;23.90;36.40;;;;;;1598361;72;1911;-65
2022/03/26 06:46:15;;;;;;;;;;;23.90;36.50;;;;;;1599431;73;792;-67
2022/03/26 06:48:17;;;;;;;;;;;23.80;36.50;;;;;;1599717;73;724;-66
2022/03/26 06:50:19;;;;;;;;;;;23.80;36.50;;;;;;1596774;73;1414;-65
2022/03/26 06:52:25;;;;;;;;;;;23.90;36.40;;;;;;1600011;73;748;-67
2022/03/26 06:54:27;;;;;;;;;;;23.90;36.40;;;;;;1597454;73;626;-65
2022/03/26 06:56:29;;;;;;;;;;;23.90;36.30;;;;;;1597839;73;763;-65
2022/03/26 06:58:31;;;;;;;;;;;23.90;36.30;;;;;;1597972;72;1145;-66
2022/03/26 07:00:33;;;;;;;;;;;23.90;36.30;;;;;;1601496;73;718;-65
2022/03/26 07:02:35;;;;;;;;;;;23.90;36.30;;;;;;1597912;74;1938;-66
2022/03/26 07:04:37;;;;;;;;;;;23.90;36.20;;;;;;1593582;73;768;-68
2022/03/26 07:06:39;;;;;;;;;;;23.90;36.40;;;;;;1599224;73;722;-67
2022/03/26 07:08:41;;;;;;;;;;;23.90;36.30;;;;;;1600107;73;1127;-68
2022/03/26 07:10:45;;;;;;;;;;;23.90;36.30;;;;;;1596860;74;728;-67
2022/03/26 07:12:47;;;;;;;;;;;23.80;36.30;;;;;;1593945;73;803;-66
2022/03/26 07:14:49;;;;;;;;;;;23.90;36.30;;;;;;1595248;73;690;-67
2022/03/26 07:16:51;;;;;;;;;;;23.90;36.30;;;;;;1594311;73;733;-66
2022/03/26 07:18:53;;;;;;;;;;;23.90;36.40;;;;;;1591635;73;1170;-66
2022/03/26 07:20:59;;;;;;;;;;;23.90;36.30;;;;;;1592473;73;748;-66
2022/03/26 07:22:58;;;;;;;;;;;23.90;36.30;;;;;;1591242;73;1945;-67
2022/03/26 07:25:00;;;;;;;;;;;23.90;36.30;;;;;;1593382;72;724;-67
2022/03/26 07:27:02;;;;;;;;;;;23.90;36.30;;;;;;1591980;72;756;-65
2022/03/26 07:29:04;;;;;;;;;;;23.90;36.30;;;;;;1592455;73;1305;-67
2022/03/26 07:31:06;;;;;;;;;;;23.90;36.40;;;;;;1591729;72;718;-65
2022/03/26 07:33:08;;;;;;;;;;;23.90;36.40;;;;;;1593308;72;718;-65
2022/03/26 07:35:10;;;;;;;;;;;23.90;36.40;;;;;;1603554;72;700;-64
2022/03/26 07:37:12;;;;;;;;;;;24.00;36.40;;;;;;1603886;72;753;-62
2022/03/26 07:39:14;;;;;;;;;;;23.90;36.50;;;;;;1602204;72;1175;-64
2022/03/26 07:41:16;;;;;;;;;;;24.00;36.60;;;;;;1599500;73;776;-62
2022/03/26 07:43:18;;;;;;;;;;;23.90;36.70;;;;;;1601957;73;1930;-64
2022/03/26 07:45:20;;;;;;;;;;;24.00;36.70;;;;;;1600562;73;614;-70
2022/03/26 07:47:22;;;;;;;;;;;24.00;36.60;;;;;;1609600;72;712;-66
2022/03/26 07:49:24;;;;;;;;;;;24.00;36.60;;;;;;1607852;72;1182;-69
2022/03/26 07:51:26;;;;;;;;;;;24.20;36.40;;;;;;1615142;72;721;-66
2022/03/26 07:53:29;;;;;;;;;;;24.20;36.20;;;;;;1604739;73;706;-66
2022/03/26 07:55:31;;;;;;;;;;;24.20;35.90;;;;;;1609023;72;702;-66
2022/03/26 07:57:33;;;;;;;;;;;24.20;35.70;;;;;;1601120;71;745;-66
2022/03/26 07:59:35;;;;;;;;;;;24.30;35.70;;;;;;1611962;72;1110;-66
2022/03/26 08:01:37;;;;;;;;;;;24.30;35.40;;;;;;1612938;73;709;-67
2022/03/26 08:03:38;;;;;;;;;;;24.30;35.40;;;;;;1593112;72;1906;-67
2022/03/26 08:05:40;;;;;;;;;;;24.40;35.20;;;;;;1598762;72;655;-70
2022/03/26 08:07:42;;;;;;;;;;;24.50;35.00;;;;;;1593934;73;824;-73
2022/03/26 08:09:44;;;;;;;;;;;24.40;34.90;;;;;;1588577;72;1127;-69
2022/03/26 08:11:46;;;;;;;;;;;24.50;35.00;;;;;;1598897;72;729;-67
2022/03/26 08:13:48;;;;;;;;;;;24.50;34.70;;;;;;1596745;72;751;-68
2022/03/26 08:15:50;;;;;;;;;;;24.50;34.60;;;;;;1603522;72;710;-68
2022/03/26 08:17:51;;;;;;;;;;;24.60;34.90;;;;;;1610479;72;712;-68
2022/03/26 08:19:53;;;;;;;;;;;24.60;34.90;;;;;;1602534;72;1122;-68
2022/03/26 08:21:55;;;;;;;;;;;24.70;34.50;;;;;;1609944;72;724;-69
2022/03/26 08:23:57;;;;;;;;;;;24.70;34.60;;;;;;1615988;72;1929;-69
2022/03/26 08:28:19;;;;;;;;;;;24.70;34.00;;;;;;1601873;73;657;-68
2022/03/26 08:30:21;;;;;;;;;;;24.70;33.70;;;;;;1609741;72;1141;-67
2022/03/26 08:32:23;;;;;;;;;;;24.70;33.90;;;;;;1605027;72;713;-67
2022/03/26 08:34:25;;;;;;;;;;;24.70;34.00;;;;;;1610040;73;705;-67
2022/03/26 08:36:26;;;;;;;;;;;24.80;33.70;;;;;;1609302;72;724;-68
2022/03/26 08:38:28;;;;;;;;;;;24.90;33.70;;;;;;1619413;72;659;-68
2022/03/26 08:40:30;;;;;;;;;;;24.90;33.60;;;;;;1605213;72;609;-69
2022/03/26 08:42:32;;;;;;;;;;;25.00;33.50;;;;;;1538459;75;739;-70
2022/03/26 08:44:34;;;;;;;;;;;25.00;33.50;;;;;;1580287;74;1939;-69
2022/03/26 08:46:36;;;;;;;;;;;25.10;33.10;;;;;;1578269;74;706;-70
2022/03/26 08:48:38;;;;;;;;;;;25.10;32.80;;;;;;1583001;74;1179;-68
2022/03/26 08:50:40;;;;;;;;;;;25.10;32.80;;;;;;1567538;74;655;-71
2022/03/26 08:52:42;;;;;;;;;;;25.10;32.80;;;;;;1575475;74;667;-70
2022/03/26 08:54:43;;;;;;;;;;;25.10;33.00;;;;;;1567415;74;699;-73
2022/03/26 08:56:45;;;;;;;;;;;25.10;32.90;;;;;;1562143;75;682;-74
2022/03/26 08:58:47;;;;;;;;;;;25.10;33.00;;;;;;1548386;75;1204;-73
2022/03/26 09:00:51;;;;;;;;;;;25.20;33.00;;;;;;1581953;74;738;-69
2022/03/26 09:02:52;;;;;;;;;;;25.20;33.00;;;;;;1598695;72;767;-70
2022/03/26 09:04:56;;;;;;;;;;;25.20;33.00;;;;;;1601111;72;1945;-70
2022/03/26 09:06:58;;;;;;;;;;;25.30;33.00;;;;;;1612227;72;660;-70
2022/03/26 09:09:00;;;;;;;;;;;25.20;33.00;;;;;;1609853;73;1159;-70
2022/03/26 09:11:04;;;;;;;;;;;25.20;33.00;;;;;;1601257;73;728;-70
2022/03/26 09:13:05;;;;;;;;;;;25.20;32.90;;;;;;1600256;72;704;-69
2022/03/26 09:15:08;;;;;;;;;;;25.20;32.80;;;;;;1596925;72;709;-69
2022/03/26 09:17:10;;;;;;;;;;;25.40;32.80;;;;;;1598193;72;749;-70
2022/03/26 09:19:11;;;;;;;;;;;25.30;32.70;;;;;;1619720;72;1362;-70
2022/03/26 09:21:13;;;;;;;;;;;25.30;32.70;;;;;;1578582;74;777;-70
2022/03/26 09:23:15;;;;;;;;;;;25.30;32.60;;;;;;1603539;72;722;-70
2022/03/26 09:25:18;;;;;;;;;;;25.40;32.60;;;;;;1598248;72;1938;-70
2022/03/26 09:27:20;;;;;;;;;;;25.40;32.50;;;;;;1599484;73;741;-70
2022/03/26 09:29:22;;;;;;;;;;;25.50;32.40;;;;;;1609629;72;1121;-71
2022/03/26 09:31:24;;;;;;;;;;;25.60;32.30;;;;;;1595874;73;718;-71
2022/03/26 09:33:26;;;;;;;;;;;25.60;32.30;;;;;;1598181;73;711;-71
2022/03/26 09:35:28;;;;;;;;;;;25.60;32.10;;;;;;1593070;72;707;-70
2022/03/26 09:37:30;;;;;;;;;;;25.60;32.10;;;;;;1597321;72;729;-71
2022/03/26 09:39:31;;;;;;;;;;;25.60;32.10;;;;;;1601132;72;1141;-70
2022/03/26 09:41:33;;;;;;;;;;;25.60;32.00;;;;;;1598355;72;732;-68
2022/03/26 09:43:35;;;;;;;;;;;25.60;32.00;;;;;;1591182;72;1926;-74
2022/03/26 09:45:37;;;;;;;;;;;25.50;31.80;;;;;;1597365;72;767;-70
2022/03/26 09:47:39;;;;;;;;;;;25.50;31.30;;;;;;1597609;72;844;-70
2022/03/26 09:49:41;;;;;;;;;;;25.40;30.70;;;;;;1598386;73;1165;-70
2022/03/26 09:51:43;;;;;;;;;;;25.30;30.30;;;;;;1589287;72;718;-69
2022/03/26 09:53:44;;;;;;;;;;;25.30;30.30;;;;;;1590852;72;713;-67
2022/03/26 09:55:46;;;;;;;;;;;25.20;30.30;;;;;;1592134;73;789;-68
2022/03/26 09:57:48;;;;;;;;;;;25.20;30.50;;;;;;1594166;73;715;-68
2022/03/26 09:59:50;;;;;;;;;;;25.20;30.60;;;;;;1544490;75;1146;-68
2022/03/26 10:01:52;;;;;;;;;;;25.10;30.70;;;;;;1585578;74;728;-68
2022/03/26 10:04:11;;;;;;;;;;;25.10;30.70;;;;;;1557722;75;1943;-68
2022/03/26 10:06:13;;;;;;;;;;;25.00;30.70;;;;;;1577121;74;641;-68
2022/03/26 10:08:19;;;;;;;;;;;25.00;30.80;;;;;;1568472;74;770;-68
2022/03/26 10:10:21;;;;;;;;;;;24.90;30.80;;;;;;1564463;74;1253;-67
2022/03/26 10:12:27;;;;;;;;;;;25.00;30.80;;;;;;1565162;74;735;-68
2022/03/26 10:14:31;;;;;;;;;;;24.90;30.80;;;;;;1567196;74;774;-67
2022/03/26 10:16:32;;;;;;;;;;;24.90;30.80;;;;;;1552828;74;1576;-68
2022/03/26 10:18:38;;;;;;;;;;;24.80;30.70;;;;;;1569348;74;1160;-69
2022/03/26 10:20:40;;;;;;;;;;;24.90;30.80;;;;;;1556796;74;762;-67
2022/03/26 10:22:43;;;;;;;;;;;24.80;30.70;;;;;;1559805;74;637;-69
2022/03/26 10:24:45;;;;;;;;;;;24.80;30.70;;;;;;1559384;74;1940;-68
2022/03/26 10:26:47;;;;;;;;;;;24.80;30.70;;;;;;1556103;74;719;-69
2022/03/26 10:28:53;;;;;;;;;;;24.70;30.70;;;;;;1530554;75;1189;-69
2022/03/26 10:33:21;;;;;;;;;;;24.70;30.70;;;;;;1530809;74;730;-68
2022/03/26 10:35:23;;;;;;;;;;;24.80;30.70;;;;;;1570932;74;732;-68
2022/03/26 10:37:25;;;;;;;;;;;24.60;30.50;;;;;;1570700;74;708;-69
2022/03/26 10:39:27;;;;;;;;;;;24.70;30.70;;;;;;1570823;74;1155;-67
2022/03/26 10:41:31;;;;;;;;;;;24.60;30.50;;;;;;1558603;74;631;-71
2022/03/26 10:43:33;;;;;;;;;;;24.60;30.50;;;;;;1559774;75;754;-69
2022/03/26 10:45:40;;;;;;;;;;;24.60;30.70;;;;;;1566211;74;1922;-70
2022/03/26 10:47:41;;;;;;;;;;;24.60;30.80;;;;;;1564812;75;1079;-70
2022/03/26 10:49:43;;;;;;;;;;;24.60;30.90;;;;;;1565470;74;1160;-69
2022/03/26 10:51:47;;;;;;;;;;;24.70;31.00;;;;;;1562307;74;748;-68
2022/03/26 10:53:54;;;;;;;;;;;24.60;31.00;;;;;;1562571;74;717;-70
2022/03/26 10:55:52;;;;;;;;;;;24.70;30.60;;;;;;1556721;74;1547;-69
2022/03/26 10:57:54;;;;;;;;;;;24.60;29.80;;;;;;1564869;74;743;-68
2022/03/26 10:59:56;;;;;;;;;;;24.50;29.40;;;;;;1566172;74;1133;-70
2022/03/26 11:01:58;;;;;;;;;;;24.50;29.10;;;;;;1568582;74;692;-68
2022/03/26 11:04:00;;;;;;;;;;;24.50;29.20;;;;;;1567490;74;1939;-65
2022/03/26 11:06:02;;;;;;;;;;;24.40;29.20;;;;;;1574569;74;663;-65
2022/03/26 11:08:04;;;;;;;;;;;24.40;29.40;;;;;;1575162;75;776;-63
2022/03/26 11:10:06;;;;;;;;;;;24.50;29.70;;;;;;1573163;75;1101;-68
2022/03/26 11:12:08;;;;;;;;;;;24.50;30.00;;;;;;1573806;74;750;-68
2022/03/26 11:14:11;;;;;;;;;;;24.40;30.00;;;;;;1570041;75;796;-62
2022/03/26 11:16:31;;;;;;;;;;;24.50;30.20;;;;;;1573854;75;682;-62
2022/03/26 11:18:50;;;;;;;;;;;24.40;30.20;;;;;;1573698;74;1262;-62
2022/03/26 11:21:10;;;;;;;;;;;24.40;30.30;;;;;;1554703;75;1652;-61
2022/03/26 11:23:16;;;;;;;;;;;24.40;30.50;;;;;;1568228;75;702;-62
2022/03/26 11:25:26;;;;;;;;;;;24.30;30.50;;;;;;1566571;75;1945;-62
2022/03/26 11:27:35;;;;;;;;;;;24.30;30.70;;;;;;1573739;75;622;-62
2022/03/26 11:29:53;;;;;;;;;;;24.30;30.70;;;;;;1573464;74;1141;-63
2022/03/26 11:31:57;;;;;;;;;;;24.30;30.60;;;;;;1558991;75;690;-64
2022/03/26 11:34:06;;;;;;;;;;;24.30;30.60;;;;;;1563625;75;769;-62
2022/03/26 11:36:12;;;;;;;;;;;24.20;30.50;;;;;;1573885;75;768;-63
2022/03/26 11:38:11;;;;;;;;;;;24.20;30.50;;;;;;1571820;75;1550;-62
2022/03/26 11:40:13;;;;;;;;;;;24.20;30.50;;;;;;1532340;77;1123;-63
2022/03/26 11:42:15;;;;;;;;;;;24.30;30.70;;;;;;1553143;74;1179;-62
2022/03/26 11:44:17;;;;;;;;;;;24.20;30.60;;;;;;1573843;75;1927;-62
2022/03/26 11:51:16;;;;;;;;;;;24.20;30.70;;;;;;1570229;74;1641;-63
2022/03/26 11:53:34;;;;;;;;;;;24.20;30.70;;;;;;1586838;74;759;-61
2022/03/26 11:55:43;;;;;;;;;;;24.10;30.70;;;;;;1578413;74;764;-63
2022/03/26 11:57:45;;;;;;;;;;;24.10;30.70;;;;;;1573715;74;699;-63
2022/03/26 11:59:47;;;;;;;;;;;24.00;30.50;;;;;;1583652;74;1135;-64
2022/03/26 12:01:49;;;;;;;;;;;24.10;30.70;;;;;;1579462;74;715;-62
2022/03/26 12:03:51;;;;;;;;;;;24.10;30.70;;;;;;1554235;74;680;-65
2022/03/26 12:08:22;;;;;;;;;;;24.00;30.70;;;;;;1561894;74;738;-63
2022/03/26 12:10:24;;;;;;;;;;;24.00;30.70;;;;;;1552580;74;1464;-64
2022/03/26 12:12:26;;;;;;;;;;;24.00;30.60;;;;;;1545927;76;1101;-64
2022/03/26 12:14:28;;;;;;;;;;;24.00;30.70;;;;;;1564346;74;675;-64
2022/03/26 12:16:47;;;;;;;;;;;24.00;30.70;;;;;;1579994;74;1062;-63
2022/03/26 12:18:49;;;;;;;;;;;24.00;30.70;;;;;;1553463;74;1164;-63
2022/03/26 12:20:51;;;;;;;;;;;23.90;30.70;;;;;;1560217;74;733;-64
2022/03/26 12:22:55;;;;;;;;;;;23.90;30.70;;;;;;1562280;74;722;-64